createdAt,value
2018-10-19T00:01:48.601Z,79.60
2018-10-19T00:04:16.991Z,79.80
2018-10-19T00:06:45.244Z,80.50
2018-10-19T00:09:13.509Z,80.90
2018-10-19T00:11:41.812Z,80.90
2018-10-19T00:14:10.092Z,81.50
2018-10-19T00:16:38.581Z,81.30
2018-10-19T00:19:07.259Z,81.30
2018-10-19T00:21:36.016Z,81.80
2018-10-19T00:24:04.831Z,82.90
2018-10-19T00:29:01.459Z,82.00
2018-10-19T00:31:29.948Z,82.40
2018-10-19T00:38:54.913Z,83.00
2018-10-19T00:41:23.812Z,83.30
2018-10-19T00:43:52.158Z,83.40
2018-10-19T00:46:20.724Z,83.50
2018-10-19T00:51:17.763Z,84.20
2018-10-19T00:53:46.949Z,83.90
2018-10-19T00:56:15.392Z,83.60
2018-10-19T00:58:44.154Z,84.00
2018-10-19T01:01:12.792Z,84.10
2018-10-19T01:03:41.140Z,83.80
2018-10-19T01:06:09.463Z,83.30
2018-10-19T01:08:37.999Z,83.00
2018-10-19T01:11:06.668Z,83.50
2018-10-19T01:13:35.273Z,83.50
2018-10-19T01:16:04.264Z,83.30
2018-10-19T01:18:32.953Z,83.30
2018-10-19T01:23:30.421Z,83.30
2018-10-19T01:25:59.001Z,84.00
2018-10-19T01:28:27.384Z,84.30
2018-10-19T01:30:56.093Z,84.20
2018-10-19T01:33:25.144Z,84.20
2018-10-19T01:35:53.508Z,84.10
2018-10-19T01:38:21.710Z,84.40
2018-10-19T01:45:51.855Z,84.20
2018-10-19T01:48:20.628Z,84.70
2018-10-19T01:50:49.060Z,84.70
2018-10-19T01:53:17.875Z,84.40
2018-10-19T01:55:46.432Z,84.90
2018-10-19T01:58:15.378Z,84.80
2018-10-19T02:00:43.963Z,84.40
2018-10-19T02:03:13.339Z,84.10
2018-10-19T02:05:41.657Z,84.10
2018-10-19T02:10:39.219Z,84.20
2018-10-19T02:13:08.813Z,84.20
2018-10-19T02:15:37.564Z,84.20
2018-10-19T02:18:06.080Z,84.80
2018-10-19T02:20:34.702Z,85.60
2018-10-19T02:23:03.325Z,86.30
2018-10-19T02:25:31.664Z,86.80
2018-10-19T02:27:59.830Z,86.00
2018-10-19T02:30:28.152Z,85.70
2018-10-19T02:32:56.606Z,85.60
2018-10-19T02:37:53.244Z,85.00
2018-10-19T02:40:21.422Z,84.40
2018-10-19T02:42:49.760Z,83.50
2018-10-19T02:45:18.254Z,84.00
2018-10-19T02:47:46.555Z,83.90
2018-10-19T02:50:15.872Z,83.20
2018-10-19T02:55:12.681Z,82.60
2018-10-19T03:00:10.834Z,83.10
2018-10-19T03:02:39.605Z,83.20
2018-10-19T03:07:37.336Z,82.50
2018-10-19T03:10:05.979Z,82.90
2018-10-19T03:12:34.632Z,83.20
2018-10-19T03:15:03.185Z,83.20
2018-10-19T03:17:31.708Z,83.20
2018-10-19T03:20:00.336Z,83.10
2018-10-19T03:22:28.767Z,83.20
2018-10-19T03:27:25.555Z,83.10
2018-10-19T03:29:54.213Z,82.90
2018-10-19T03:32:22.870Z,83.30
2018-10-19T03:34:52.516Z,83.10
2018-10-19T03:42:17.258Z,84.30
2018-10-19T03:44:45.651Z,84.10
2018-10-19T03:47:14.487Z,84.40
2018-10-19T03:49:43.388Z,84.40
2018-10-19T03:57:08.542Z,85.00
2018-10-19T03:59:37.200Z,85.10
2018-10-19T04:02:05.626Z,85.60
2018-10-19T04:07:03.876Z,85.70
2018-10-19T04:09:32.540Z,85.70
2018-10-19T04:12:00.940Z,85.60
2018-10-19T04:19:26.996Z,85.60
2018-10-19T04:21:55.754Z,85.50
2018-10-19T04:24:24.378Z,86.10
2018-10-19T04:26:52.862Z,86.60
2018-10-19T04:29:21.866Z,86.60
2018-10-19T04:31:50.728Z,86.40
2018-10-19T04:34:19.088Z,86.00
2018-10-19T04:36:47.500Z,86.20
2018-10-19T04:39:16.165Z,87.00
2018-10-19T04:41:44.710Z,86.70
2018-10-19T04:46:41.388Z,86.30
2018-10-19T04:49:09.891Z,86.80
2018-10-19T04:54:06.761Z,86.50
2018-10-19T04:56:36.297Z,86.40
2018-10-19T05:04:01.494Z,85.40
2018-10-19T05:06:30.347Z,85.00
2018-10-19T05:08:58.869Z,85.00
2018-10-19T05:11:27.561Z,84.80
2018-10-19T05:13:56.307Z,84.40
2018-10-19T05:18:52.872Z,84.00
2018-10-19T05:21:21.444Z,84.20
2018-10-19T05:23:49.632Z,83.40
2018-10-19T05:28:46.476Z,83.00
2018-10-19T05:33:43.261Z,83.10
2018-10-19T05:36:11.608Z,82.80
2018-10-19T05:38:39.924Z,81.90
2018-10-19T05:41:08.472Z,81.60
2018-10-19T05:43:37.113Z,80.60
2018-10-19T05:46:05.856Z,79.70
2018-10-19T05:51:02.564Z,77.20
2018-10-19T05:53:31.181Z,76.20
2018-10-19T05:55:59.348Z,75.20
2018-10-19T05:58:28.087Z,74.00
2018-10-19T06:03:24.742Z,71.90
2018-10-19T06:08:21.201Z,69.60
2018-10-19T06:13:18.851Z,67.00
2018-10-19T06:15:48.464Z,66.00
2018-10-19T06:18:16.853Z,64.80
2018-10-19T06:20:45.544Z,64.30
2018-10-19T06:23:14.114Z,63.50
2018-10-19T06:28:10.972Z,61.90
2018-10-19T06:30:39.676Z,60.50
2018-10-19T06:33:08.263Z,59.90
2018-10-19T06:35:37.876Z,58.60
2018-10-19T06:38:06.488Z,58.30
2018-10-19T06:40:34.907Z,57.60
2018-10-19T06:43:03.300Z,57.40
2018-10-19T06:45:31.697Z,57.30
2018-10-19T06:48:00.256Z,56.60
2018-10-19T06:50:28.489Z,56.00
2018-10-19T06:52:57.730Z,55.50
2018-10-19T06:55:25.803Z,54.40
2018-10-19T06:57:54.180Z,53.70
2018-10-19T07:00:22.656Z,53.20
2018-10-19T07:02:51.319Z,52.50
2018-10-19T07:05:19.616Z,51.30
2018-10-19T07:07:48.949Z,51.20
2018-10-19T07:10:17.308Z,51.90
2018-10-19T07:12:46.025Z,51.10
2018-10-19T07:15:14.531Z,50.60
2018-10-19T07:17:43.147Z,49.90
2018-10-19T07:20:11.312Z,49.50
2018-10-19T07:22:40.093Z,48.90
2018-10-19T07:25:08.493Z,48.50
2018-10-19T07:30:05.688Z,47.30
2018-10-19T07:32:33.935Z,46.70
2018-10-19T07:35:02.343Z,45.80
2018-10-19T07:37:30.683Z,45.20
2018-10-19T07:39:58.823Z,44.80
2018-10-19T07:42:27.009Z,44.90
2018-10-19T07:44:54.828Z,44.80
2018-10-19T07:47:23.134Z,44.90
2018-10-19T07:52:19.161Z,43.70
2018-10-19T07:54:47.188Z,43.50
2018-10-19T07:57:15.272Z,42.80
2018-10-19T07:59:43.356Z,42.70
2018-10-19T08:02:11.899Z,42.20
2018-10-19T08:04:40.166Z,41.80
2018-10-19T08:07:08.568Z,41.20
2018-10-19T08:12:05.240Z,41.20
2018-10-19T08:14:33.705Z,40.90
2018-10-19T08:17:02.381Z,40.40
2018-10-19T08:19:30.708Z,40.30
2018-10-19T08:21:58.728Z,40.10
2018-10-19T08:24:26.811Z,39.60
2018-10-19T08:26:54.876Z,40.00
2018-10-19T08:29:22.921Z,40.50
2018-10-19T08:31:51.034Z,40.60
2018-10-19T08:34:19.084Z,40.40
2018-10-19T08:36:47.171Z,41.60
2018-10-19T08:39:15.234Z,41.10
2018-10-19T08:41:43.506Z,40.60
2018-10-19T08:44:11.397Z,40.10
2018-10-19T08:46:40.644Z,39.70
2018-10-19T08:49:10.359Z,39.20
2018-10-19T08:54:07.480Z,38.80
2018-10-19T08:56:35.728Z,38.00
2018-10-19T08:59:03.900Z,38.30
2018-10-19T09:01:32.188Z,38.00
2018-10-19T09:06:28.420Z,37.60
2018-10-19T09:08:56.760Z,37.30
2018-10-19T09:11:25.013Z,36.90
2018-10-19T09:13:53.392Z,36.80
2018-10-19T09:16:21.705Z,37.20
2018-10-19T09:18:50.079Z,36.90
2018-10-19T09:21:18.572Z,36.30
2018-10-19T09:23:46.751Z,36.00
2018-10-19T09:26:14.745Z,35.80
2018-10-19T09:28:42.822Z,35.70
2018-10-19T09:33:38.740Z,35.10
2018-10-19T09:38:35.704Z,35.40
2018-10-19T09:43:31.856Z,35.70
2018-10-19T09:45:59.924Z,35.20
2018-10-19T09:48:28.079Z,34.80
2018-10-19T09:50:56.100Z,34.50
2018-10-19T09:53:24.128Z,34.20
2018-10-19T09:58:20.279Z,34.50
2018-10-19T10:00:53.995Z,34.50
2018-10-19T10:03:21.960Z,34.40
2018-10-19T10:05:50.015Z,34.30
2018-10-19T10:10:45.980Z,34.10
2018-10-19T10:13:14.845Z,34.50
2018-10-19T10:15:43.045Z,34.30
2018-10-19T10:18:10.987Z,34.30
2018-10-19T10:20:39.084Z,34.50
2018-10-19T10:23:07.148Z,34.80
2018-10-19T10:25:35.224Z,35.20
2018-10-19T10:28:03.305Z,34.80
2018-10-19T10:30:31.412Z,34.60
2018-10-19T10:32:59.415Z,33.80
2018-10-19T10:35:27.483Z,34.30
2018-10-19T10:37:55.576Z,34.00
2018-10-19T10:40:23.634Z,34.30
2018-10-19T10:42:51.696Z,35.40
2018-10-19T10:45:19.759Z,36.70
2018-10-19T10:47:47.912Z,37.50
2018-10-19T10:52:44.900Z,38.20
2018-10-19T10:55:12.978Z,38.90
2018-10-19T10:57:41.054Z,39.10
2018-10-19T11:00:09.452Z,39.00
2018-10-19T11:02:37.657Z,39.40
2018-10-19T11:05:06.386Z,39.00
2018-10-19T11:07:34.778Z,39.60
2018-10-19T11:10:02.763Z,38.60
2018-10-19T11:12:31.080Z,38.70
2018-10-19T11:15:00.351Z,38.10
2018-10-19T11:19:56.537Z,37.70
2018-10-19T11:22:24.536Z,36.90
2018-10-19T11:24:54.970Z,37.70
2018-10-19T11:27:23.124Z,37.40
2018-10-19T11:29:51.342Z,37.70
2018-10-19T11:34:47.948Z,38.40
2018-10-19T11:37:16.248Z,38.40
2018-10-19T11:39:55.015Z,38.00
2018-10-19T11:42:23.292Z,37.90
2018-10-19T11:44:51.237Z,38.30
2018-10-19T11:49:47.500Z,38.40
2018-10-19T11:52:15.532Z,38.40
2018-10-19T11:54:43.659Z,38.90
2018-10-19T11:57:11.662Z,38.30
2018-10-19T11:59:39.741Z,38.20
2018-10-19T12:02:08.596Z,38.10
2018-10-19T12:04:36.788Z,37.40
2018-10-19T12:09:33.240Z,37.10
2018-10-19T12:12:01.345Z,36.70
2018-10-19T12:14:29.404Z,37.40
2018-10-19T12:16:58.378Z,37.90
2018-10-19T12:19:26.635Z,38.90
2018-10-19T12:21:54.840Z,40.20
2018-10-19T12:24:22.922Z,40.90
2018-10-19T12:26:51.276Z,41.40
2018-10-19T12:29:19.320Z,41.40
2018-10-19T12:31:47.437Z,41.60
2018-10-19T12:34:15.499Z,40.90
2018-10-19T12:36:43.624Z,40.30
2018-10-19T12:39:11.662Z,39.70
2018-10-19T12:41:39.696Z,39.90
2018-10-19T12:44:07.788Z,40.00
2018-10-19T12:46:48.351Z,40.20
2018-10-19T12:49:19.013Z,40.30
2018-10-19T12:51:47.007Z,39.50
2018-10-19T12:56:43.207Z,39.20
2018-10-19T12:59:11.336Z,39.90
2018-10-19T13:01:39.416Z,39.90
2018-10-19T13:04:07.387Z,40.30
2018-10-19T13:06:35.504Z,40.50
2018-10-19T13:09:06.134Z,40.50
2018-10-19T13:11:34.140Z,40.60
2018-10-19T13:14:02.159Z,41.00
2018-10-19T13:16:30.106Z,41.20
2018-10-19T13:18:58.113Z,41.30
2018-10-19T13:23:54.190Z,41.40
2018-10-19T13:26:22.233Z,41.60
2018-10-19T13:28:50.251Z,42.20
2018-10-19T13:31:18.361Z,42.30
2018-10-19T13:33:46.391Z,42.40
2018-10-19T13:36:14.928Z,42.00
2018-10-19T13:38:43.255Z,42.10
2018-10-19T13:41:11.932Z,43.00
2018-10-19T13:43:40.504Z,44.00
2018-10-19T13:46:08.639Z,44.30
2018-10-19T13:48:36.732Z,44.20
2018-10-19T13:51:04.842Z,44.30
2018-10-19T13:53:32.840Z,44.50
2018-10-19T13:56:00.896Z,44.90
2018-10-19T13:58:29.017Z,44.90
2018-10-19T14:00:57.095Z,44.90
2018-10-19T14:03:25.052Z,45.10
2018-10-19T14:08:21.239Z,45.80
2018-10-19T14:10:49.317Z,45.90
2018-10-19T14:13:17.451Z,46.30
2018-10-19T14:15:45.520Z,46.70
2018-10-19T14:20:41.616Z,47.10
2018-10-19T14:23:09.712Z,46.80
2018-10-19T14:25:37.808Z,47.10
2018-10-19T14:28:05.906Z,47.00
2018-10-19T14:30:34.200Z,47.30
2018-10-19T14:33:03.264Z,47.50
2018-10-19T14:35:31.241Z,48.00
2018-10-19T14:37:59.428Z,48.10
2018-10-19T14:40:27.709Z,48.20
2018-10-19T14:42:56.276Z,48.90
2018-10-19T14:45:24.468Z,49.20
2018-10-19T14:47:52.431Z,49.50
2018-10-19T14:50:20.664Z,49.80
2018-10-19T14:52:48.665Z,50.30
2018-10-19T14:57:46.052Z,50.40
2018-10-19T15:02:43.235Z,51.00
2018-10-19T15:05:12.855Z,51.10
2018-10-19T15:07:41.128Z,51.70
2018-10-19T15:10:11.745Z,52.40
2018-10-19T15:12:40.059Z,53.20
2018-10-19T15:15:09.429Z,54.20
2018-10-19T15:17:37.671Z,54.60
2018-10-19T15:20:05.944Z,55.10
2018-10-19T15:22:34.812Z,55.00
2018-10-19T15:25:02.825Z,55.40
2018-10-19T15:27:30.947Z,55.70
2018-10-19T15:29:59.020Z,55.60
2018-10-19T15:32:27.027Z,56.40
2018-10-19T15:34:55.896Z,56.60
2018-10-19T15:37:24.554Z,56.90
2018-10-19T15:42:20.542Z,57.80
2018-10-19T15:44:48.620Z,58.20
2018-10-19T15:47:16.712Z,59.00
2018-10-19T15:49:44.762Z,60.10
2018-10-19T15:52:12.888Z,60.70
2018-10-19T15:54:40.891Z,61.30
2018-10-19T15:57:09.018Z,61.50
2018-10-19T16:02:05.208Z,62.10
2018-10-19T16:04:33.559Z,62.50
2018-10-19T16:09:30.340Z,63.10
2018-10-19T16:11:58.650Z,63.60
2018-10-19T16:19:22.934Z,64.60
2018-10-19T16:21:52.439Z,64.10
2018-10-19T16:24:20.824Z,64.20
2018-10-19T16:26:51.343Z,64.00
2018-10-19T16:29:19.908Z,64.80
2018-10-19T16:31:48.504Z,65.30
2018-10-19T16:34:16.764Z,65.80
2018-10-19T16:36:45.184Z,66.00
2018-10-19T16:41:42.088Z,66.00
2018-10-19T16:44:10.655Z,66.10
2018-10-19T16:46:39.532Z,66.50
2018-10-19T16:49:07.993Z,66.60
2018-10-19T16:51:36.051Z,66.80
2018-10-19T16:54:04.253Z,67.00
2018-10-19T16:56:32.499Z,67.20
2018-10-19T17:01:29.132Z,67.80
2018-10-19T17:03:57.368Z,67.60
2018-10-19T17:06:25.473Z,67.30
2018-10-19T17:08:53.898Z,67.40
2018-10-19T17:11:22.167Z,67.60
2018-10-19T17:13:51.124Z,67.30
2018-10-19T17:16:19.285Z,66.90
2018-10-19T17:18:47.396Z,67.10
2018-10-19T17:21:15.818Z,66.90
2018-10-19T17:23:44.093Z,66.90
2018-10-19T17:26:12.156Z,67.00
2018-10-19T17:33:36.158Z,67.10
2018-10-19T17:36:05.435Z,67.20
2018-10-19T17:38:33.758Z,66.40
2018-10-19T17:41:01.814Z,66.80
2018-10-19T17:43:29.828Z,66.70
2018-10-19T17:48:26.060Z,67.30
2018-10-19T17:50:54.122Z,67.50
2018-10-19T17:53:22.138Z,67.40
2018-10-19T18:00:46.150Z,66.50
2018-10-19T18:03:14.483Z,66.70
2018-10-19T18:05:42.640Z,66.70
2018-10-19T18:08:10.876Z,67.00
2018-10-19T18:10:38.948Z,67.10
2018-10-19T18:13:07.101Z,67.30
2018-10-19T18:15:36.363Z,67.40
2018-10-19T18:20:32.769Z,67.70
2018-10-19T18:23:01.014Z,67.50
2018-10-19T18:25:28.986Z,67.90
2018-10-19T18:27:57.704Z,67.80
2018-10-19T18:32:54.375Z,66.70
2018-10-19T18:37:51.376Z,67.50
2018-10-19T18:40:19.992Z,67.70
2018-10-19T18:42:48.649Z,67.70
2018-10-19T18:45:17.259Z,67.50
2018-10-19T18:47:46.039Z,67.20
2018-10-19T18:50:14.782Z,67.20
2018-10-19T18:52:43.215Z,67.40
2018-10-19T18:55:11.691Z,67.70
2018-10-19T18:57:40.071Z,67.40
2018-10-19T19:00:10.211Z,67.40
2018-10-19T19:02:38.712Z,68.10
2018-10-19T19:05:07.304Z,68.90
2018-10-19T19:07:35.811Z,69.50
2018-10-19T19:12:37.984Z,70.40
2018-10-19T19:15:06.780Z,70.30
2018-10-19T19:17:34.987Z,70.40
2018-10-19T19:22:36.833Z,70.60
2018-10-19T19:25:10.795Z,70.60
2018-10-19T19:27:38.957Z,70.40
2018-10-19T19:32:35.477Z,70.20
2018-10-19T19:35:03.490Z,70.10
2018-10-19T19:37:31.576Z,70.20
2018-10-19T19:39:59.627Z,70.40
2018-10-19T19:45:01.302Z,70.30
2018-10-19T19:50:04.466Z,70.00
2018-10-19T19:52:32.859Z,70.10
2018-10-19T19:55:01.253Z,70.30
2018-10-19T19:57:29.311Z,69.90
2018-10-19T19:59:57.460Z,70.10
2018-10-19T20:02:25.460Z,70.10
2018-10-19T20:04:53.583Z,70.10
2018-10-19T20:07:21.616Z,70.00
2018-10-19T20:09:49.680Z,69.70
2018-10-19T20:12:17.911Z,69.20
2018-10-19T20:14:46.124Z,69.00
2018-10-19T20:17:14.269Z,68.80
2018-10-19T20:19:42.296Z,68.90
2018-10-19T20:24:41.860Z,69.10
2018-10-19T20:27:09.852Z,69.30
2018-10-19T20:29:37.923Z,69.20
2018-10-19T20:32:06.146Z,69.10
2018-10-19T20:34:34.477Z,69.40
2018-10-19T20:37:02.519Z,69.60
2018-10-19T20:39:30.515Z,69.60
2018-10-19T20:41:58.996Z,69.50
2018-10-19T20:44:29.013Z,70.00
2018-10-19T20:49:25.028Z,70.70
2018-10-19T20:51:53.031Z,70.70
2018-10-19T20:54:21.107Z,71.00
2018-10-19T20:56:49.196Z,71.00
2018-10-19T20:59:17.243Z,71.30
2018-10-19T21:01:45.364Z,71.40
2018-10-19T21:06:41.461Z,71.80
2018-10-19T21:09:10.680Z,72.20
2018-10-19T21:11:39.303Z,72.60
2018-10-19T21:14:07.855Z,73.10
2018-10-19T21:19:04.261Z,73.10
2018-10-19T21:21:32.344Z,72.90
2018-10-19T21:24:00.436Z,72.90
2018-10-19T21:26:28.492Z,72.40
2018-10-19T21:28:56.676Z,72.90
2018-10-19T21:31:24.616Z,73.40
2018-10-19T21:33:52.719Z,73.80
2018-10-19T21:36:20.846Z,74.20
2018-10-19T21:43:44.976Z,75.30
2018-10-19T21:46:13.568Z,75.70
2018-10-19T21:48:42.056Z,76.20
2018-10-19T21:53:38.955Z,76.60
2018-10-19T21:56:08.053Z,76.40
2018-10-19T21:58:36.884Z,76.20
2018-10-19T22:01:05.230Z,76.00
2018-10-19T22:03:33.652Z,75.70
2018-10-19T22:06:02.382Z,75.20
2018-10-19T22:08:31.154Z,75.10
2018-10-19T22:10:59.784Z,74.90
2018-10-19T22:13:28.278Z,75.30
2018-10-19T22:18:25.208Z,75.10
2018-10-19T22:20:53.725Z,74.70
2018-10-19T22:25:50.519Z,74.50
2018-10-19T22:28:18.996Z,75.10
2018-10-19T22:30:47.628Z,76.30
2018-10-19T22:35:45.024Z,77.60
2018-10-19T22:38:13.627Z,77.70
2018-10-19T22:40:42.087Z,77.70
2018-10-19T22:45:40.992Z,77.80
2018-10-19T22:48:09.556Z,78.20
2018-10-19T22:53:10.083Z,78.30
2018-10-19T22:55:38.568Z,78.50
2018-10-19T22:58:08.450Z,78.30
2018-10-19T23:00:37.025Z,78.40
2018-10-19T23:03:06.732Z,78.20
2018-10-19T23:05:35.566Z,78.20
2018-10-19T23:10:32.688Z,78.40
2018-10-19T23:13:01.848Z,78.50
2018-10-19T23:15:30.356Z,78.50
2018-10-19T23:17:58.703Z,78.50
2018-10-19T23:20:27.169Z,78.50
2018-10-19T23:22:55.459Z,79.20
2018-10-19T23:25:28.419Z,79.50
2018-10-19T23:27:56.673Z,79.40
2018-10-19T23:30:25.342Z,79.30
2018-10-19T23:35:21.958Z,79.70
2018-10-19T23:37:50.458Z,79.50
2018-10-19T23:40:19.192Z,79.60
2018-10-19T23:45:18.112Z,79.70
2018-10-19T23:47:46.636Z,79.70
2018-10-19T23:50:15.132Z,79.90
2018-10-19T23:52:43.715Z,80.50
2018-10-19T23:55:12.773Z,80.30
2018-10-19T23:57:41.243Z,80.20
